• Join FlightAware (Why Join?)
  • Login
  • US Flag 
07:15AM EST


 

Airport Tracker/Info


-or-


 

Live Flight TrackerFlight Track Log ✈ N675MC ✈ 13-Sep-2013 ✈ KATL - KORD

Flight Track Log - Related Links

Times and Time Zones

All times are in EDT time to prevent confusion due to time zone crossing. See the N675MC flight status page for this flight to view local times or setup timezone preferences in your user account.

Time Position Orientation Groundspeed Altitude Reporting Facility
EDT Latitude Longitude Course Direction KTS MPH feet Rate Location/Type
01:55PM 33.6500 -84.4667 356° North 181 208 2,400  Level Atlanta TRACON
01:56PM 33.6667 -84.5333 287° West 251 289 3,900 1,980 Climbing Atlanta TRACON
01:57PM 33.7167 -84.5833 320° Northwest 280 322 6,300 1,860 Climbing Atlanta TRACON
01:59PM 34.1171 -84.6073 349° North  Level Estimated
01:59PM 33.9139 -84.6069 354° North 301 346 10,600  Level Atlanta Center
02:00PM 34.2174 -84.6168 356° North  Level FlightAware Approximate
02:00PM 34.0161 -84.6153 356° North 335 386 11,900  Level Atlanta Center
02:01PM 34.1183 -84.6258 355° North 361 415 14,100 1,920 Climbing Atlanta Center
02:02PM 34.2247 -84.6342 356° North 374 430 15,800 1,860 Climbing Atlanta Center
02:03PM 34.3314 -84.6400 357° North 383 441 17,900 1,980 Climbing Atlanta Center
02:04PM 34.4419 -84.6483 356° North 388 447 19,800 1,800 Climbing Atlanta Center
02:05PM 34.5544 -84.6542 358° North 388 447 21,500 1,380 Climbing Atlanta Center
02:06PM 34.6547 -84.6650 355° North 393 452 22,600 1,260 Climbing Atlanta Center
02:07PM 34.7653 -84.6786 354° North 393 452 24,100 1,380 Climbing Atlanta Center
02:08PM 34.8778 -84.6819 359° North 398 458 25,400 1,200 Climbing Atlanta Center
02:09PM 34.9947 -84.6903 357° North 405 466 26,600 1,200 Climbing Atlanta Center
02:10PM 35.1072 -84.7092 352° North 405 466 27,800 660 Climbing Atlanta Center
02:11PM 35.2261 -84.7328 351° North 416 479 28,000 600 Climbing Atlanta Center
02:12PM 35.3428 -84.7567 351° North 422 486 29,000 1,200 Climbing Atlanta Center
02:13PM 35.4553 -84.7833 349° North 422 486 30,500 1,200 Climbing Atlanta Center
02:14PM 35.5614 -84.8175 345° North 408 470 31,400 780 Climbing Atlanta Center
02:15PM 35.6697 -84.8567 344° North 403 464 32,100 600 Climbing Atlanta Center
02:16PM 35.7842 -84.8989 343° North 391 450 32,600 720 Climbing Atlanta Center
02:17PM 35.8908 -84.9461 340° North 406 467 33,600 660 Climbing Indianapolis Center
02:18PM 35.9964 -84.9903 341° North 401 461 34,000 180 Climbing Indianapolis Center
02:19PM 36.1031 -85.0358 341° North 405 466 34,000  Level Indianapolis Center
02:21PM 36.2161 -85.0686 347° North 412 474 34,000  Level Indianapolis Center
02:22PM 36.3300 -85.0972 349° North 415 478 34,000  Level Indianapolis Center
02:23PM 36.4419 -85.1281 348° North 413 475 34,000  Level Indianapolis Center
02:24PM 36.5775 -85.1672 347° North 416 479 34,000  Level Indianapolis Center
02:25PM 36.6908 -85.1975 348° North 416 479 34,000  Level Indianapolis Center
02:26PM 36.8031 -85.2306 347° North 414 476 34,000  Level Indianapolis Center
02:27PM 36.9156 -85.2628 347° North 414 476 34,000  Level Indianapolis Center
02:28PM 37.0372 -85.3008 346° North 413 475 34,000  Level Indianapolis Center
02:29PM 37.1497 -85.3322 347° North 413 475 34,000  Level Indianapolis Center
02:30PM 37.2622 -85.3628 348° North 413 475 34,000  Level Indianapolis Center
02:31PM 37.3736 -85.3967 346° North 411 473 34,000  Level Indianapolis Center
02:32PM 37.4844 -85.4300 347° North 409 471 34,000  Level Indianapolis Center
02:33PM 37.6158 -85.4647 348° North 410 472 34,000  Level Indianapolis Center
02:34PM 37.7297 -85.4847 352° North 412 474 34,000  Level Indianapolis Center
02:35PM 37.8292 -85.5061 350° North 408 470 34,000  Level Indianapolis Center
02:36PM 37.9661 -85.5356 350° North 411 473 34,000  Level Indianapolis Center
02:37PM 38.0778 -85.5569 351° North 406 467 34,000  Level Indianapolis Center
02:38PM 38.1936 -85.5653 357° North 413 475 34,000  Level Indianapolis Center
02:39PM 38.3081 -85.5731 357° North 413 475 34,000  Level Indianapolis Center
02:40PM 38.4219 -85.5839 356° North 411 473 34,000  Level Indianapolis Center
02:41PM 38.5353 -85.5950 356° North 409 471 34,000  Level Indianapolis Center
02:42PM 38.6647 -85.6031 357° North 412 474 34,000 -180 Level Indianapolis Center
02:43PM 38.7767 -85.6136 356° North 406 467 33,700 -600 Descending Indianapolis Center
02:44PM 38.8878 -85.6247 356° North 402 463 32,800 -840 Descending Indianapolis Center
02:45PM 38.9958 -85.6372 355° North 394 453 32,000 -960 Descending Indianapolis Center
02:46PM 39.1219 -85.6544 354° North 384 442 30,900 -960 Descending Indianapolis Center
02:47PM 39.2292 -85.6728 352° North 388 447 30,100 -840 Descending Indianapolis Center
02:48PM 39.3383 -85.6858 355° North 394 453 29,200 -540 Descending Indianapolis Center
02:49PM 39.4503 -85.6953 356° North 404 465 29,000 -120 Descending Indianapolis Center
02:51PM 39.5633 -85.6875 North 410 472 29,000  Level Indianapolis Center
02:52PM 39.7006 -85.6831 North 414 476 29,000  Level Indianapolis Center
02:53PM 39.8150 -85.6747 North 415 478 29,000 -240 Level Indianapolis Center
02:54PM 39.9292 -85.6667 North 415 478 28,600 -960 Descending Indianapolis Center
02:55PM 40.0392 -85.6883 351° North 411 473 27,100 -1,260 Descending Indianapolis Center
02:56PM 40.1342 -85.7644 329° Northwest 408 470 26,100 -540 Descending Indianapolis Center
02:57PM 40.2511 -85.8592 328° Northwest 413 475 26,000 -300 Descending Indianapolis Center
02:58PM 40.3500 -85.9358 329° Northwest 418 481 25,600 -660 Descending Chicago Center
02:59PM 40.4506 -86.0153 329° Northwest 423 487 24,700 -960 Descending Chicago Center
03:00PM 40.5250 -86.1242 312° West 407 468 23,700 -1,020 Descending Chicago Center
03:01PM 40.5956 -86.2417 308° West 412 474 22,600 -840 Descending Chicago Center
03:02PM 40.6758 -86.3839 307° West 406 467 22,000 -300 Descending Chicago Center
03:03PM 40.7453 -86.5022 308° West 404 465 22,000 -120 Level Chicago Center
03:04PM 40.8206 -86.6169 311° West 412 474 21,800 -780 Descending Chicago Center
03:05PM 40.9056 -86.7394 313° West 409 471 20,500 -1,320 Descending Chicago Center
03:06PM 40.9914 -86.8206 325° Northwest 383 441 19,100 -1,320 Descending Chicago Center
03:07PM 41.0725 -86.9003 323° Northwest 368 423 17,800 -1,260 Descending Chicago Center
03:08PM 41.1506 -86.9783 323° Northwest 356 410 16,500 -1,380 Descending Chicago Center
03:09PM 41.2247 -87.0575 321° Northwest 346 398 15,000 -1,440 Descending Chicago Center
03:10PM 41.3111 -87.1461 322° Northwest 333 383 13,500 -1,620 Descending Chicago Center
03:11PM 41.3869 -87.2228 323° Northwest 342 394 11,700 -1,260 Descending Chicago Center
03:12PM 41.4614 -87.2981 323° Northwest 340 391 11,000 -360 Descending Chicago Center
03:13PM 41.5358 -87.3711 324° Northwest 336 387 11,000 -60 Level Chicago Center
03:14PM 41.6067 -87.4425 323° Northwest 326 375 10,900 -840 Descending Chicago Center
03:15PM 41.6753 -87.5147 322° Northwest 266 306 9,300 -1,620 Descending Chicago Center
03:16PM 41.7289 -87.5814 317° Northwest 263 303 7,600 -1,140 Descending Chicago Center
03:17PM 41.7814 -87.6536 314° West 269 310 7,000 -300 Descending Chicago Center
03:18PM 41.8117 -87.7358 296° West 269 310 7,000  Level Chicago Center
03:19PM 41.7969 -87.8403 259° West 248 285 7,000 -300 Level Chicago Center
03:20PM 41.7736 -87.9272 250° West 250 288 6,400 -900 Descending Chicago Center
03:22PM 41.7619 -88.0075 259° West 236 272 5,200 -1,140 Descending Chicago Center
03:23PM 41.8061 -88.0539 322° Northwest 227 261 4,100 -1,020 Descending Chicago Center
03:24PM 41.8531 -88.0167 31° Northeast 210 242 3,100 -1,020 Descending Chicago Center
03:24PM 41.8833 -87.9833 39° Northeast 180 207 2,400 -1,020 Descending Chicago TRACON
03:25PM 41.9167 -87.9333 48° Northeast 161 185 1,500 -840 Descending Chicago TRACON
03:26PM 41.9500 -87.9000 37° Northeast 136 157 800 -720 Descending Chicago TRACON